EGMCLFRN

Guest
Details From EGMC - Southend
To LFRN - Rennes St Jacques
Flight Number -
Tags decoded
Created
Modified
Stats Distance 231 nm / 428 km
Max Altitude 0 ft / 0 m
Waypoints 5
Social Downloads 0
Likes 0
Share VATSIM

Download

Looking for another format? Having issues loading an existing format? Contact us
Advertisement - Login to hide

Notes

Requested: EGMC DET SFD ANGLO LFRN

Route

EGMC DET SFD ANGLO LFRN

ID Type Via Altitude Latitude Longitude Leg Dist Tot Dist Heading (true) Name
O EGMC APT - 0 ft / 0 m 51.57144˚ 0.69558˚ - 0 nm - Southend
DET VOR - 0 ft / 0 m 51.30389˚ 0.59722˚ 16 nm 16 nm 193° / 193° DETLING VOR-DME
SFD VOR - 0 ft / 0 m 50.76056˚ 0.12194˚ 37 nm 53 nm 209° / 209° SEAFORD VOR-DME
ANGLO FIX - 0 ft / 0 m 49.92833˚ -0.45500˚ 54 nm 108 nm 204° / 204° -
O LFRN APT - 0 ft / 0 m 48.06941˚ -1.73459˚ 122 nm 230 nm 205° / 204° Rennes St Jacques

Altitude Profile

Advertisement - Login to hide

Weather


0- 5 10 15 20 25 30 35+ Temperature / ° C

Clouds and Precipitation
Forecast for 2018-05-27 00:00 UTC. Updated 3 hours ago

Ground ~20,000 ft ~40,000 ft Winds

EGMC

Details ICAO EGMC (SEN)
Name Southend
Region United Kingdom
Timezone Europe/London (UTC+1.0)
Stats Elevation 49 ft / 15 m (AMSL)
Location 51.571443° 0.695583°
Runways 1
Magnetic Variation 0.106° W

METAR

EGMC 270220Z 36006KT 7000 NSC 16/13 Q1016

Decode

TAF

Not found

Departure Runways

ID Width Length Bearing (true) Bearing (mag) Surface Threshold Offset Overrun Length
06 121 ft / 37 m 5,230 ft / 1,594 m 54.10° 54.21° Asphalt 558 ft / 170 m 0 ft / 0 m
24 121 ft / 37 m 5,230 ft / 1,594 m 234.11° 234.22° Asphalt 466 ft / 142 m 0 ft / 0 m

LFRN

Details ICAO LFRN (RNS)
Name Rennes St Jacques
Region France
Timezone Europe/Paris (UTC+2.0)
Stats Elevation 124 ft / 38 m (AMSL)
Location 48.069410° -1.734587°
Runways 2
Magnetic Variation 0.572° W

METAR

LFRN 270200Z AUTO 11004KT 080V150 5000 BR SCT016 15/15 Q1013 TEMPO BKN012

Decode

TAF

TAF LFRN 262300Z 2700/2724 18010KT 9999 BKN020 TEMPO 2700/2706 4000 BR BKN012 BECMG 2706/2708 BKN020 PROB30 TEMPO 2712/2718 5000 SHRA BKN030TCU BECMG 2713/2715 23007KT

Decode

Destination Runways

ID Width Length Bearing (true) Bearing (mag) Surface Threshold Offset Overrun Length
10 148 ft / 45 m 6,895 ft / 2,102 m 100.76° 101.33° Asphalt 230 ft / 70 m 0 ft / 0 m
14 98 ft / 30 m 2,785 ft / 849 m 142.19° 142.76° Asphalt 0 ft / 0 m 0 ft / 0 m
28 148 ft / 45 m 6,895 ft / 2,102 m 280.78° 281.35° Asphalt 0 ft / 0 m 0 ft / 0 m
32 98 ft / 30 m 2,785 ft / 849 m 322.20° 322.77° Asphalt 0 ft / 0 m 0 ft / 0 m

Approach Navaids

Runway Type Ident Frequency Range Bearing (true) Bearing (mag) Slope Elevation
28 Localiser RS 110.10 MHz 18 nm / 33 km 280.72° 281.29° - 124 ft / 38 m (AMSL)
28 Glidescope RS 110.10 MHz 10 nm / 19 km 280.77° 281.34° 3.00° 124 ft / 38 m (AMSL)
28 DME RS 110.10 MHz 18 nm / 33 km - - - 174 ft / 53 m (AMSL)

Popular Alternatives